Time;durP1;ratioP1;P1;durP2;ratioP2;P2;SDS_P1;SDS_P2;PMS_P1;PMS_P2;Temp;Humidity;BMP_temperature;BMP_pressure;BME280_temperature;BME280_humidity;BME280_pressure;Samples;Min_cycle;Max_cycle;Signal;HPM_P1;HPM_P2
2022/09/07 00:01:16;;;;;;;5.83;5.23;;;20.40;62.20;;;23.20;48.10;101282.50;5068868;28;20214;-64
2022/09/07 00:03:44;;;;;;;5.87;5.37;;;20.50;62.20;;;23.21;48.20;101273.38;5053359;28;20221;-64
2022/09/07 00:06:13;;;;;;;6.10;5.47;;;20.40;62.00;;;23.18;48.05;101273.84;5053556;28;20659;-65
2022/09/07 00:08:42;;;;;;;6.30;4.97;;;20.40;62.00;;;23.16;48.11;101278.66;5053530;28;20186;-65
2022/09/07 00:11:13;;;;;;;6.17;5.57;;;20.40;62.10;;;23.14;48.05;101272.72;5053197;28;20383;-65
2022/09/07 00:13:43;;;;;;;9.13;5.67;;;20.40;62.20;;;23.13;47.95;101276.47;5053263;28;20212;-64
2022/09/07 00:16:14;;;;;;;6.20;5.60;;;20.40;62.20;;;23.09;48.24;101269.94;5053591;28;20201;-64
2022/09/07 00:18:43;;;;;;;6.83;6.10;;;20.40;62.40;;;23.09;48.51;101275.31;5053512;28;20269;-64
2022/09/07 00:21:16;;;;;;;5.67;5.13;;;20.30;62.30;;;23.05;48.29;101276.88;5053159;28;20182;-64
2022/09/07 00:23:46;;;;;;;6.33;5.70;;;20.30;62.40;;;23.06;48.30;101281.19;5053113;28;20696;-64
2022/09/07 00:26:17;;;;;;;5.90;5.30;;;20.30;62.60;;;23.09;48.38;101280.69;5053075;28;20531;-63
2022/09/07 00:28:45;;;;;;;5.70;5.20;;;20.30;62.70;;;23.10;48.33;101271.59;5053176;28;20216;-63
2022/09/07 00:31:16;;;;;;;6.30;5.27;;;20.40;62.50;;;23.10;48.04;101272.41;5064512;28;20303;-63
2022/09/07 00:33:46;;;;;;;5.30;4.80;;;20.40;62.50;;;23.12;48.20;101264.09;5073223;28;20216;-63
2022/09/07 00:36:16;;;;;;;6.07;5.47;;;20.40;62.40;;;23.14;47.98;101261.97;5073559;28;20196;-64
2022/09/07 00:38:44;;;;;;;5.80;5.30;;;20.40;62.40;;;23.12;48.25;101254.16;5073099;28;20645;-63
2022/09/07 00:41:12;;;;;;;7.60;6.47;;;20.40;62.40;;;23.14;47.99;101254.72;5073078;28;20635;-62
2022/09/07 00:43:43;;;;;;;8.37;5.10;;;20.40;62.30;;;23.15;48.03;101258.25;5088854;28;20217;-64
2022/09/07 00:46:15;;;;;;;5.60;5.10;;;20.40;62.40;;;23.16;48.13;101249.09;5073017;28;20203;-64
2022/09/07 00:48:52;;;;;;;8.30;5.80;;;20.40;62.30;;;23.14;48.06;101251.22;5073367;28;20259;-63
2022/09/07 00:51:28;;;;;;;5.70;5.17;;;20.40;62.20;;;23.13;47.98;101260.34;5072873;28;20533;-63
2022/09/07 00:54:01;;;;;;;5.37;5.00;;;20.40;62.30;;;23.11;48.18;101262.44;5033048;28;20190;-66
2022/09/07 00:56:35;;;;;;;6.13;5.53;;;20.40;62.30;;;23.10;48.32;101260.84;5032951;28;20178;-63
2022/09/07 00:59:03;;;;;;;6.37;5.73;;;20.40;62.50;;;23.11;48.18;101255.22;5033030;28;20183;-64
2022/09/07 01:01:32;;;;;;;6.37;5.67;;;20.40;62.60;;;23.12;48.10;101242.59;5032757;28;20203;-64
2022/09/07 01:04:02;;;;;;;6.10;5.60;;;20.40;62.60;;;23.12;48.16;101239.91;5033226;28;20229;-63
2022/09/07 01:06:35;;;;;;;6.13;5.60;;;20.40;62.60;;;23.12;47.92;101242.59;5032868;28;20218;-64
2022/09/07 01:09:06;;;;;;;5.77;5.27;;;20.40;62.60;;;23.13;47.87;101244.25;5033227;28;20182;-63
2022/09/07 01:11:35;;;;;;;5.13;4.73;;;20.40;62.50;;;23.12;48.09;101242.59;5035728;28;20204;-64
2022/09/07 01:14:06;;;;;;;5.80;5.30;;;20.40;62.60;;;23.12;48.12;101237.22;5068148;28;20594;-63
2022/09/07 01:17:02;;;;;;;6.37;5.67;;;20.30;62.60;;;23.09;48.27;101237.72;5052846;28;20185;-63
2022/09/07 01:20:02;;;;;;;6.97;5.03;;;20.40;62.60;;;23.07;48.24;101242.50;5067646;28;20554;-64
2022/09/07 01:23:00;;;;;;;5.63;5.17;;;20.40;62.60;;;23.04;48.27;101245.69;5072544;28;20211;-65
2022/09/07 01:25:41;;;;;;;5.70;5.20;;;20.40;62.60;;;23.04;48.41;101240.31;5072615;28;20221;-63
2022/09/07 01:28:18;;;;;;;6.57;5.80;;;20.30;62.70;;;23.05;48.55;101236.56;5033063;28;20189;-65
2022/09/07 01:30:55;;;;;;;5.87;5.03;;;20.30;62.80;;;23.06;48.54;101240.91;5032957;28;20687;-63
2022/09/07 01:33:48;;;;;;;6.10;5.47;;;20.30;62.80;;;23.01;48.37;101235.44;5033024;28;20237;-62
2022/09/07 01:36:25;;;;;;;5.50;5.00;;;20.30;62.80;;;23.05;48.22;101231.22;5034105;28;20191;-63
2022/09/07 01:38:57;;;;;;;5.87;5.20;;;20.30;62.80;;;23.06;48.23;101232.84;5033647;28;20187;-64
2022/09/07 01:41:34;;;;;;;5.90;5.40;;;20.30;62.80;;;23.05;48.46;101236.56;5033412;28;20177;-63
2022/09/07 01:44:11;;;;;;;6.00;5.40;;;20.30;62.80;;;23.06;48.17;101238.22;5033696;28;20202;-63
2022/09/07 01:46:45;;;;;;;6.27;5.70;;;20.30;62.90;;;23.07;48.40;101234.47;5034242;28;20191;-63
2022/09/07 01:49:20;;;;;;;7.07;5.43;;;20.30;62.90;;;23.06;48.46;101233.63;5041024;28;20251;-63
2022/09/07 01:51:54;;;;;;;5.30;4.80;;;20.30;62.90;;;23.06;48.39;101232.84;5055761;28;20585;-64
2022/09/07 01:54:30;;;;;;;7.13;5.20;;;20.30;63.70;;;23.05;48.58;101225.84;5057580;28;20178;-64
2022/09/07 01:57:05;;;;;;;5.87;5.33;;;20.30;63.00;;;23.06;48.62;101211.38;5057510;28;20205;-64
2022/09/07 01:59:42;;;;;;;5.87;5.37;;;20.30;63.00;;;23.06;48.72;101225.56;5056443;28;20217;-65
2022/09/07 02:02:15;;;;;;;6.60;6.00;;;20.30;63.00;;;23.06;48.63;101224.78;5056428;28;20220;-64
2022/09/07 02:04:51;;;;;;;8.10;5.33;;;20.30;62.90;;;23.04;48.39;101224.19;5055896;28;20659;-64
2022/09/07 02:07:26;;;;;;;6.03;5.53;;;20.30;62.90;;;23.01;48.50;101217.44;5055819;28;20643;-64
2022/09/07 02:10:00;;;;;;;5.80;5.30;;;20.30;63.10;;;23.02;48.64;101220.94;5055781;28;20192;-62
2022/09/07 02:12:37;;;;;;;6.03;5.53;;;20.30;63.20;;;23.01;48.75;101219.34;5055475;28;20210;-63
2022/09/07 02:15:14;;;;;;;7.77;6.13;;;20.30;63.20;;;23.02;48.67;101212.88;5055707;28;20188;-62
2022/09/07 02:17:48;;;;;;;6.30;5.70;;;20.30;63.40;;;23.03;48.63;101201.09;5055616;28;20522;-62
2022/09/07 02:20:23;;;;;;;7.03;6.27;;;20.30;63.30;;;23.02;48.73;101204.84;5055418;28;20197;-62
2022/09/07 02:23:04;;;;;;;5.70;5.23;;;20.30;63.40;;;23.04;48.71;101191.97;5062828;28;20220;-63
2022/09/07 02:25:39;;;;;;;7.17;6.10;;;20.30;63.40;;;23.06;48.41;101189.88;5075429;28;20241;-62
2022/09/07 02:28:13;;;;;;;6.57;5.93;;;20.30;63.40;;;23.08;48.66;101187.75;5075845;28;20684;-62
2022/09/07 02:30:43;;;;;;;5.80;5.30;;;20.30;63.40;;;23.08;48.63;101190.44;5075632;28;20180;-60
2022/09/07 02:33:10;;;;;;;6.27;5.67;;;20.30;63.30;;;23.08;48.72;101185.06;5075038;28;20711;-64
2022/09/07 02:35:38;;;;;;;6.43;5.93;;;20.30;63.40;;;23.11;48.67;101184.56;5075379;28;20196;-64
2022/09/07 02:38:07;;;;;;;6.00;5.50;;;20.30;63.50;;;23.13;48.69;101179.78;5075361;28;20189;-63
2022/09/07 02:40:35;;;;;;;6.30;5.80;;;20.30;63.50;;;23.16;48.74;101176.56;5075465;28;20197;-64
2022/09/07 02:43:07;;;;;;;6.93;6.30;;;20.40;63.60;;;23.19;48.23;101178.78;5090970;28;20259;-64
2022/09/07 02:45:58;;;;;;;6.33;5.83;;;20.40;63.50;;;23.18;48.52;101177.94;5083281;28;20229;-65
2022/09/07 02:48:40;;;;;;;6.70;5.97;;;20.40;63.40;;;23.21;48.50;101179.34;5055358;28;20232;-62
2022/09/07 02:51:17;;;;;;;6.63;6.03;;;20.40;63.30;;;23.24;48.35;101176.97;5055111;28;20196;-62
2022/09/07 02:54:26;;;;;;;6.50;5.90;;;20.50;63.30;;;23.20;48.52;101169.66;5054895;28;20209;-65
2022/09/07 02:57:09;;;;;;;6.80;6.13;;;20.50;63.30;;;23.24;48.46;101186.91;5054880;28;20233;-65
2022/09/07 02:59:55;;;;;;;6.13;5.63;;;20.50;64.00;;;23.20;48.61;101218.81;5054015;28;20190;-65
2022/09/07 03:02:33;;;;;;;8.10;6.93;;;20.50;63.90;;;23.09;48.79;101261.88;5053876;28;20570;-65
2022/09/07 03:05:11;;;;;;;8.77;6.33;;;20.50;63.40;;;23.04;48.60;101259.09;5054612;28;20213;-64
2022/09/07 03:07:50;;;;;;;8.37;7.50;;;20.40;63.30;;;22.97;49.48;101277.25;5054479;28;20185;-63
2022/09/07 03:10:18;;;;;;;9.50;6.50;;;20.40;64.20;;;22.96;49.38;101318.63;5054665;28;20177;-63
2022/09/07 03:12:48;;;;;;;8.47;6.77;;;20.30;64.30;;;22.95;49.67;101290.13;5054520;28;20214;-65
2022/09/07 03:15:20;;;;;;;8.30;7.60;;;20.30;64.70;;;22.83;50.12;101293.69;5054456;28;20196;-63
2022/09/07 03:17:49;;;;;;;6.17;5.67;;;20.20;65.10;;;22.85;50.20;101288.88;5054537;28;20182;-63
2022/09/07 03:20:18;;;;;;;8.13;6.63;;;20.20;65.10;;;22.87;50.21;101267.97;5054416;28;20209;-64
2022/09/07 03:22:49;;;;;;;9.30;7.13;;;20.20;65.30;;;22.87;50.37;101262.59;5054403;28;20221;-63
2022/09/07 03:25:17;;;;;;;7.63;6.93;;;20.20;65.50;;;22.89;50.69;101251.63;5054147;28;20209;-64
2022/09/07 03:27:45;;;;;;;7.27;6.63;;;20.20;65.40;;;22.92;50.50;101251.94;5054020;28;20185;-63
2022/09/07 03:30:13;;;;;;;7.83;7.10;;;20.30;65.70;;;22.95;50.60;101253.34;5054401;28;20202;-63
2022/09/07 03:32:41;;;;;;;7.20;6.50;;;20.30;65.90;;;22.98;50.62;101246.66;5054118;28;20218;-63
2022/09/07 03:35:11;;;;;;;7.73;7.03;;;20.30;66.10;;;23.00;50.95;101247.22;5054560;28;20192;-62
2022/09/07 03:37:40;;;;;;;7.20;6.50;;;20.30;67.20;;;23.02;50.88;101245.94;5054435;28;20214;-64
2022/09/07 03:40:10;;;;;;;8.03;6.67;;;20.30;67.00;;;23.06;51.15;101238.22;5054110;28;20662;-64
2022/09/07 03:42:38;;;;;;;7.47;6.70;;;20.30;67.20;;;23.10;51.52;101239.34;5054056;28;20222;-62
2022/09/07 03:45:08;;;;;;;7.60;6.80;;;20.30;67.90;;;23.10;51.42;101239.34;5053863;28;20209;-64
2022/09/07 03:47:36;;;;;;;11.00;6.77;;;20.30;67.60;;;23.13;51.77;101238.88;5053632;28;20224;-64
2022/09/07 03:50:06;;;;;;;6.60;6.03;;;20.30;68.20;;;23.18;51.38;101225.50;5053636;28;20186;-63
2022/09/07 03:52:35;;;;;;;7.20;6.60;;;20.40;67.90;;;23.20;51.42;101212.66;5053474;28;20216;-62
2022/09/07 03:55:04;;;;;;;7.67;7.03;;;20.40;67.90;;;23.24;51.53;101211.09;5053607;28;20179;-63
2022/09/07 03:57:31;;;;;;;9.07;8.13;;;20.40;68.00;;;23.26;51.95;101208.97;5053414;28;20197;-63
2022/09/07 03:59:59;;;;;;;7.70;6.90;;;20.50;69.00;;;23.21;52.27;101203.50;5053778;28;20686;-63
2022/09/07 04:02:26;;;;;;;8.43;7.33;;;20.50;69.10;;;23.22;52.35;101202.47;5053448;28;20214;-63
2022/09/07 04:04:54;;;;;;;8.50;7.70;;;20.50;69.30;;;23.24;52.10;101203.03;5053859;28;20213;-62
2022/09/07 04:07:21;;;;;;;7.87;7.27;;;20.50;69.20;;;23.21;52.37;101206.19;5054377;28;20194;-64
2022/09/07 04:09:50;;;;;;;7.80;7.00;;;20.50;69.10;;;23.18;52.60;101209.38;5053846;28;20204;-65
2022/09/07 04:12:17;;;;;;;8.27;7.20;;;20.40;69.40;;;23.17;52.41;101213.13;5053188;28;20217;-64
2022/09/07 04:14:45;;;;;;;8.10;7.33;;;20.40;69.00;;;23.16;52.33;101208.81;5053198;28;20189;-63
2022/09/07 04:17:12;;;;;;;8.43;7.20;;;20.40;68.90;;;23.14;52.47;101219.00;5068700;28;20194;-62
2022/09/07 04:19:40;;;;;;;8.03;7.33;;;20.40;69.20;;;23.15;52.91;101224.13;5069514;28;20202;-62
2022/09/07 04:22:07;;;;;;;7.93;7.20;;;20.40;70.10;;;23.16;53.31;101224.94;5072571;28;20209;-62
2022/09/07 04:24:34;;;;;;;8.13;7.17;;;20.40;70.40;;;23.17;53.23;101210.44;5088486;28;20208;-65
2022/09/07 04:27:03;;;;;;;10.30;7.83;;;20.40;70.80;;;23.21;53.61;101211.56;5073251;28;20189;-62
2022/09/07 04:29:31;;;;;;;10.10;8.80;;;20.40;70.90;;;23.25;53.87;101199.28;5068362;28;20198;-64
2022/09/07 04:31:58;;;;;;;8.30;7.40;;;20.40;71.10;;;23.29;53.27;101205.78;5052818;28;20218;-64
2022/09/07 04:34:26;;;;;;;7.83;7.03;;;20.50;71.00;;;23.33;53.14;101201.53;5052745;28;20204;-64
2022/09/07 04:36:53;;;;;;;8.90;8.17;;;20.50;70.70;;;23.34;53.31;101205.88;5053099;28;20185;-64
2022/09/07 04:39:20;;;;;;;10.93;7.07;;;20.50;71.00;;;23.35;53.25;101204.81;5052695;28;20198;-63
2022/09/07 04:41:47;;;;;;;11.23;7.60;;;20.50;70.90;;;23.39;52.91;101211.34;5052254;28;20213;-63
2022/09/07 04:44:16;;;;;;;8.27;7.43;;;20.60;70.90;;;23.41;53.33;101209.22;5052243;28;20186;-65
2022/09/07 04:46:44;;;;;;;8.97;8.03;;;20.60;70.80;;;23.42;53.12;101217.03;5052431;28;20602;-63
2022/09/07 04:49:11;;;;;;;8.17;7.37;;;20.60;70.60;;;23.44;52.83;101216.78;5053425;28;20202;-63
2022/09/07 04:51:41;;;;;;;7.33;6.77;;;20.70;70.40;;;23.42;53.06;101219.72;5052197;28;20198;-63
2022/09/07 04:54:10;;;;;;;8.10;7.30;;;20.60;70.40;;;23.39;53.03;101222.09;5052916;28;20182;-63
2022/09/07 04:56:38;;;;;;;8.47;7.73;;;20.60;70.50;;;23.35;53.08;101220.94;5053116;28;20504;-63
2022/09/07 04:59:05;;;;;;;9.60;7.30;;;20.60;70.60;;;23.30;53.10;101224.34;5052761;28;20196;-64
2022/09/07 05:01:34;;;;;;;9.67;7.87;;;20.60;70.50;;;23.28;53.16;101220.28;5052273;28;20201;-64
2022/09/07 05:04:03;;;;;;;7.67;7.07;;;20.50;70.80;;;23.26;53.29;101219.72;5052388;28;20499;-64
2022/09/07 05:06:31;;;;;;;9.33;8.40;;;20.40;70.60;;;23.26;52.85;101211.66;5052136;28;20214;-63
2022/09/07 05:08:59;;;;;;;8.27;7.43;;;20.40;70.70;;;23.25;53.13;101220.78;5052648;28;20204;-63
2022/09/07 05:11:27;;;;;;;8.37;7.63;;;20.40;70.50;;;23.23;53.16;101239.81;5051986;28;20197;-62
2022/09/07 05:13:56;;;;;;;8.77;7.87;;;20.40;70.50;;;23.20;52.65;101261.00;5052680;28;20227;-64
2022/09/07 05:16:25;;;;;;;8.37;7.67;;;20.40;70.00;;;23.15;52.79;101259.06;5052283;28;20213;-65
2022/09/07 05:18:57;;;;;;;10.53;8.73;;;20.40;69.90;;;23.10;52.74;101255.47;5053167;28;20212;-63
2022/09/07 05:21:27;;;;;;;10.70;9.43;;;20.40;69.80;;;23.09;52.64;101251.13;5053154;28;20179;-64
2022/09/07 05:23:57;;;;;;;9.67;8.77;;;20.40;69.70;;;23.06;52.49;101254.34;5055595;28;20185;-62
2022/09/07 05:26:27;;;;;;;10.17;8.47;;;20.40;69.60;;;23.02;52.63;101254.00;5057054;28;20213;-65
2022/09/07 05:28:55;;;;;;;10.70;8.70;;;20.30;69.70;;;22.97;53.02;101255.78;5056716;28;20194;-64
2022/09/07 05:31:42;;;;;;;10.80;9.80;;;20.30;70.20;;;22.86;53.90;101252.13;5055692;28;20222;-63
2022/09/07 05:34:11;;;;;;;12.03;10.07;;;20.20;70.70;;;22.78;54.08;101247.94;5056052;28;20281;-64
2022/09/07 05:36:54;;;;;;;11.30;10.30;;;20.20;71.00;;;22.72;54.63;101248.13;5056213;28;20170;-65
2022/09/07 05:39:22;;;;;;;11.10;9.80;;;20.20;72.20;;;22.73;54.85;101244.34;5055730;28;20194;-62
2022/09/07 05:41:49;;;;;;;17.07;9.47;;;20.20;72.80;;;22.72;54.69;101232.84;5055807;28;20677;-63
2022/09/07 05:44:16;;;;;;;10.87;9.70;;;20.10;72.40;;;22.78;55.17;101236.41;5055786;28;20194;-63
2022/09/07 05:47:04;;;;;;;9.93;9.03;;;20.10;72.90;;;22.78;54.94;101226.47;5055870;28;20216;-65
2022/09/07 05:49:33;;;;;;;11.13;10.13;;;20.10;73.10;;;22.83;55.47;101213.13;5056232;28;20502;-65
2022/09/07 05:52:01;;;;;;;10.87;9.70;;;20.10;74.00;;;22.88;55.63;101215.91;5054904;28;20220;-64
2022/09/07 05:54:28;;;;;;;12.43;11.23;;;20.10;74.20;;;22.91;55.87;101219.97;5055970;28;20186;-63
2022/09/07 05:56:55;;;;;;;11.83;10.73;;;20.20;74.60;;;22.88;56.27;101226.66;5055757;28;20193;-64
2022/09/07 05:59:23;;;;;;;15.03;12.43;;;20.20;74.90;;;22.84;56.33;101220.13;5055776;28;20681;-64
2022/09/07 06:01:50;;;;;;;11.17;10.17;;;20.20;74.90;;;22.81;56.46;101212.56;5055504;28;20639;-65
2022/09/07 06:04:18;;;;;;;13.37;11.23;;;20.20;74.90;;;22.80;56.57;101216.31;5055871;28;20190;-64
2022/09/07 06:06:47;;;;;;;10.53;9.53;;;20.20;74.90;;;22.81;56.40;101206.38;5055406;28;20214;-63
2022/09/07 06:09:35;;;;;;;12.53;11.23;;;20.10;74.90;;;22.84;56.50;101181.75;5055796;28;20194;-63
2022/09/07 06:12:22;;;;;;;13.37;12.10;;;20.10;75.30;;;22.89;56.57;101200.63;5055219;28;20252;-63
2022/09/07 06:14:50;;;;;;;14.03;12.40;;;20.20;75.50;;;22.95;56.45;101201.50;5055049;28;20194;-64
2022/09/07 06:17:18;;;;;;;11.93;10.83;;;20.10;75.50;;;23.01;56.31;101203.22;5055401;28;20205;-63
2022/09/07 06:19:45;;;;;;;11.97;10.67;;;20.20;75.40;;;23.05;56.08;101209.72;5070370;28;20289;-63
2022/09/07 06:22:15;;;;;;;13.20;11.77;;;20.20;75.20;;;23.04;56.18;101210.75;5054878;28;20701;-63
2022/09/07 06:24:42;;;;;;;12.20;11.20;;;20.30;75.40;;;23.00;56.41;101212.31;5054892;28;20562;-64
2022/09/07 06:27:10;;;;;;;13.03;11.80;;;20.30;75.50;;;22.95;56.55;101190.75;5055225;28;20253;-63
2022/09/07 06:29:37;;;;;;;11.87;10.73;;;20.30;75.50;;;22.95;56.89;101182.69;5054930;28;20232;-63
2022/09/07 06:32:05;;;;;;;11.07;9.93;;;20.20;75.70;;;22.96;56.65;101192.41;5074438;28;20225;-63
2022/09/07 06:34:52;;;;;;;13.90;12.70;;;20.20;75.70;;;22.92;56.87;101204.69;5075254;28;20193;-63
2022/09/07 06:37:21;;;;;;;12.87;11.57;;;20.20;75.80;;;22.88;56.93;101215.91;5075435;28;20189;-64
2022/09/07 06:39:48;;;;;;;12.70;11.40;;;20.20;75.90;;;22.87;57.40;101200.84;5091385;28;20207;-64
2022/09/07 06:42:16;;;;;;;11.37;10.20;;;20.20;76.00;;;22.92;57.22;101184.00;5075085;28;20689;-63
2022/09/07 06:44:43;;;;;;;12.53;11.37;;;20.20;76.50;;;22.97;57.32;101191.31;5074439;28;20189;-64
2022/09/07 06:47:11;;;;;;;11.93;10.80;;;20.20;76.60;;;23.01;57.00;101181.72;5074676;28;20554;-63
2022/09/07 06:49:38;;;;;;;14.17;11.93;;;20.20;76.80;;;23.04;57.07;101186.59;5074815;28;20264;-64
2022/09/07 06:52:06;;;;;;;12.03;10.77;;;20.30;76.70;;;23.05;57.03;101185.53;5068673;28;20542;-64
2022/09/07 06:54:34;;;;;;;11.63;10.60;;;20.30;76.50;;;23.09;56.90;101186.66;5055643;28;20217;-63
2022/09/07 06:57:22;;;;;;;13.17;11.20;;;20.30;76.50;;;23.12;56.58;101189.69;5054528;28;20189;-62
2022/09/07 06:59:49;;;;;;;11.23;10.27;;;20.30;76.40;;;23.16;56.78;101184.63;5054225;28;20575;-64
2022/09/07 07:02:20;;;;;;;12.73;11.63;;;20.30;76.60;;;23.21;56.64;101187.41;5054652;28;20217;-64
2022/09/07 07:04:48;;;;;;;11.80;10.60;;;20.40;76.70;;;23.26;56.76;101184.78;5054569;28;20201;-64
2022/09/07 07:07:16;;;;;;;11.63;10.63;;;20.40;76.70;;;23.32;56.58;101195.34;5054241;28;20213;-63
2022/09/07 07:09:45;;;;;;;12.20;11.00;;;20.40;76.60;;;23.42;56.00;101194.72;5054451;28;20204;-64
2022/09/07 07:12:12;;;;;;;12.30;11.00;;;20.40;76.40;;;23.50;55.98;101200.50;5054214;28;20202;-62
2022/09/07 07:14:39;;;;;;;15.80;14.07;;;20.50;76.10;;;23.58;55.40;101201.94;5069834;28;20201;-63
2022/09/07 07:17:11;;;;;;;13.10;11.80;;;20.60;75.90;;;23.66;55.40;101196.13;5054289;28;20612;-63
2022/09/07 07:19:38;;;;;;;16.53;11.70;;;20.60;75.90;;;23.75;55.22;101199.19;5053938;28;20197;-63
2022/09/07 07:22:06;;;;;;;12.80;11.50;;;20.60;75.70;;;23.84;54.91;101198.53;5053806;28;20697;-63
2022/09/07 07:24:55;;;;;;;12.50;11.30;;;20.70;75.10;;;23.91;54.80;101196.44;5054171;28;20200;-62
2022/09/07 07:27:22;;;;;;;19.27;17.57;;;20.80;75.10;;;24.02;54.75;101200.88;5053534;28;20222;-64
2022/09/07 07:29:51;;;;;;;16.23;14.70;;;20.90;75.30;;;24.16;54.80;101202.13;5053893;28;20285;-63
2022/09/07 07:32:18;;;;;;;11.97;10.87;;;21.00;75.40;;;24.37;54.07;101210.41;5074104;28;20287;-64
2022/09/07 07:34:46;;;;;;;12.67;11.47;;;21.10;75.10;;;24.58;53.73;101204.19;5073670;28;20209;-62
2022/09/07 07:37:14;;;;;;;13.00;11.60;;;21.20;74.40;;;24.77;52.90;101206.25;5073636;28;20639;-64
2022/09/07 07:39:43;;;;;;;13.23;12.03;;;21.40;74.40;;;24.95;53.08;101202.38;5073186;28;20197;-63
2022/09/07 07:42:32;;;;;;;12.30;11.10;;;21.50;73.90;;;25.05;52.68;101209.72;5073308;28;20288;-64
2022/09/07 07:45:00;;;;;;;12.33;11.33;;;21.60;73.20;;;25.10;52.34;101202.47;5073451;28;20197;-64
2022/09/07 07:47:50;;;;;;;16.03;12.23;;;21.80;73.00;;;25.16;51.63;101206.81;5072333;28;20308;-64
2022/09/07 07:50:18;;;;;;;12.60;11.50;;;21.90;72.90;;;25.21;52.04;101188.00;5073359;28;20549;-61
2022/09/07 07:53:02;;;;;;;12.80;11.80;;;21.90;72.90;;;25.25;52.20;101189.09;5073338;28;20696;-63
2022/09/07 07:55:49;;;;;;;12.43;11.23;;;22.00;73.20;;;25.32;52.18;101200.44;5073296;28;20193;-63
2022/09/07 07:58:18;;;;;;;11.40;10.40;;;22.10;73.40;;;25.41;52.76;101201.59;5088645;28;20189;-63
2022/09/07 08:00:46;;;;;;;12.63;11.47;;;22.20;73.10;;;25.54;51.62;101208.44;5061988;28;20209;-63
2022/09/07 08:03:23;;;;;;;15.53;14.03;;;22.30;72.50;;;25.69;51.23;101215.78;5053369;28;20209;-62
2022/09/07 08:05:52;;;;;;;15.97;14.47;;;22.40;72.40;;;25.83;51.77;101216.94;5053600;28;20247;-65
2022/09/07 08:08:22;;;;;;;12.97;11.67;;;22.50;72.40;;;25.99;50.82;101215.91;5053255;28;20605;-65
2022/09/07 08:10:50;;;;;;;12.57;11.40;;;22.50;71.70;;;26.16;50.66;101216.53;5052656;28;20190;-63
2022/09/07 08:13:20;;;;;;;12.10;10.90;;;22.70;71.40;;;26.35;50.11;101225.78;5052913;28;20256;-65
2022/09/07 08:15:47;;;;;;;13.70;12.37;;;22.80;71.30;;;26.55;49.63;101228.53;5052928;28;20554;-64
2022/09/07 08:18:16;;;;;;;15.60;12.30;;;23.00;70.80;;;26.83;48.74;101230.72;5057352;28;20199;-63
2022/09/07 08:20:43;;;;;;;13.33;11.97;;;23.20;69.80;;;27.20;47.99;101237.72;5072456;28;20268;-64
2022/09/07 08:23:11;;;;;;;14.50;11.60;;;23.40;68.70;;;27.60;47.67;101229.53;5065001;28;20217;-65
2022/09/07 08:25:47;;;;;;;11.80;10.70;;;23.70;68.80;;;28.01;46.56;101239.19;5052353;28;20307;-63
2022/09/07 08:28:14;;;;;;;12.00;11.00;;;24.00;67.90;;;28.49;45.65;101234.03;5052880;28;20223;-64
2022/09/07 08:30:43;;;;;;;13.73;12.33;;;24.40;67.10;;;29.08;44.14;101231.16;5051929;28;20630;-63
2022/09/07 08:33:10;;;;;;;11.27;10.43;;;24.70;65.50;;;29.57;42.83;101233.69;5052687;28;20337;-64
2022/09/07 08:35:37;;;;;;;10.83;10.00;;;25.20;63.80;;;29.93;42.56;101234.91;5052337;28;20190;-64
2022/09/07 08:38:05;;;;;;;11.87;10.90;;;25.50;63.10;;;30.42;42.05;101231.81;5052881;28;20228;-64
2022/09/07 08:40:37;;;;;;;11.27;10.27;;;25.90;62.50;;;30.94;41.33;101233.44;5052061;28;20202;-65
2022/09/07 08:43:18;;;;;;;11.77;10.60;;;26.30;62.20;;;31.27;39.64;101232.31;5052509;28;20218;-65
2022/09/07 08:45:53;;;;;;;10.20;9.13;;;26.70;59.70;;;31.59;39.19;101242.38;5052126;28;20194;-63
2022/09/07 08:48:31;;;;;;;11.87;10.67;;;27.10;59.00;;;32.08;38.78;101235.09;5052315;28;20634;-64
2022/09/07 08:51:09;;;;;;;11.47;10.53;;;27.40;58.40;;;32.42;37.63;101240.06;5052496;28;20189;-64
2022/09/07 08:53:45;;;;;;;10.60;9.70;;;27.70;56.90;;;32.50;36.72;101236.59;5052263;28;20371;-63
2022/09/07 08:56:21;;;;;;;11.80;10.57;;;28.00;55.10;;;32.66;36.86;101231.63;5051927;28;20190;-64
2022/09/07 08:58:52;;;;;;;12.23;10.93;;;28.20;54.80;;;32.99;36.08;101232.97;5052479;28;20239;-63
2022/09/07 09:01:30;;;;;;;9.93;8.93;;;28.40;54.60;;;33.31;35.60;101229.94;5056449;28;20197;-63
2022/09/07 09:03:59;;;;;;;12.03;10.03;;;28.70;53.90;;;33.74;35.57;101229.31;5056431;28;20264;-64
2022/09/07 09:07:00;;;;;;;9.87;9.03;;;29.00;53.80;;;34.28;34.30;101231.50;5088835;28;20217;-64
2022/09/07 09:09:45;;;;;;;12.50;11.50;;;29.30;52.60;;;34.81;33.88;101244.06;5056415;28;20527;-63
2022/09/07 09:12:26;;;;;;;12.00;10.80;;;29.60;52.20;;;35.24;32.47;101244.81;5071616;28;20206;-63
2022/09/07 09:15:14;;;;;;;12.17;11.17;;;29.90;51.20;;;35.48;31.81;101236.81;5056596;28;20239;-63
2022/09/07 09:17:55;;;;;;;25.57;23.20;;;30.20;49.60;;;35.55;32.10;101234.41;5056717;28;20170;-63
2022/09/07 09:20:30;;;;;;;10.85;9.90;;;30.40;49.30;;;35.57;31.03;101234.88;5060668;28;20279;-63
2022/09/07 09:23:11;;;;;;;18.40;16.60;;;30.60;48.40;;;35.23;31.86;101224.03;5056541;28;20609;-63
2022/09/07 09:25:49;;;;;;;12.90;11.90;;;30.70;48.60;;;34.64;32.44;101229.28;5056063;28;20664;-62
2022/09/07 09:28:17;;;;;;;13.10;11.80;;;30.60;47.60;;;34.36;33.35;101233.47;5072213;28;20213;-62
2022/09/07 09:30:46;;;;;;;12.20;9.63;;;30.50;48.30;;;34.68;33.59;101224.00;5064407;28;20662;-64
2022/09/07 09:33:19;;;;;;;10.80;9.90;;;30.40;48.80;;;35.17;32.24;101217.13;5076559;28;20615;-64
2022/09/07 09:35:48;;;;;;;8.57;7.82;;;30.50;48.40;;;35.58;31.84;101220.03;5075666;28;20621;-64
2022/09/07 09:38:34;;;;;;;9.75;8.68;;;30.70;48.20;;;36.11;31.32;101215.88;5075820;28;20189;-64
2022/09/07 09:41:07;;;;;;;36.53;10.80;;;31.10;48.00;;;36.60;30.10;101218.53;5075869;28;20638;-63
2022/09/07 09:43:42;;;;;;;10.95;8.77;;;31.30;46.80;;;37.09;30.20;101215.94;5076028;28;20217;-64
2022/09/07 09:46:21;;;;;;;10.02;7.82;;;31.60;46.80;;;37.57;29.15;101220.69;5075591;28;20169;-64
2022/09/07 09:48:55;;;;;;;11.38;7.47;;;31.90;45.90;;;37.75;28.43;101214.59;5091381;28;20665;-64
2022/09/07 09:51:26;;;;;;;7.07;6.43;;;32.20;45.00;;;37.71;28.29;101212.88;5075096;28;20668;-63
2022/09/07 09:54:24;;;;;;;8.82;6.47;;;32.40;43.70;;;37.78;28.01;101213.91;5054009;28;20194;-63
2022/09/07 09:56:52;;;;;;;8.02;6.38;;;32.60;43.20;;;37.98;27.83;101214.94;5055641;28;20677;-64
2022/09/07 09:59:24;;;;;;;7.78;7.03;;;32.80;42.80;;;38.10;27.09;101209.41;5055257;28;20550;-63
2022/09/07 10:02:30;;;;;;;7.40;6.63;;;32.90;41.40;;;38.10;27.53;101214.13;5054119;28;20238;-63
2022/09/07 10:05:32;;;;;;;7.40;6.78;;;33.10;41.80;;;38.49;26.84;101219.59;5055182;28;20210;-63
2022/09/07 10:08:00;;;;;;;6.63;6.03;;;33.30;40.90;;;38.76;26.50;101220.78;5054770;28;20342;-64
2022/09/07 10:10:29;;;;;;;6.68;6.18;;;33.40;40.90;;;38.89;25.41;101218.75;5053737;28;20217;-63
2022/09/07 10:12:56;;;;;;;6.72;6.22;;;33.60;39.10;;;38.63;25.75;101219.22;5055048;28;20209;-63
2022/09/07 10:15:33;;;;;;;6.78;6.32;;;33.60;39.00;;;38.35;26.24;101201.88;5054782;28;20201;-64
2022/09/07 10:18:17;;;;;;;6.75;6.25;;;33.60;39.20;;;38.06;26.75;101208.50;5054337;28;20200;-64
2022/09/07 10:20:46;;;;;;;7.03;6.50;;;33.50;39.20;;;37.76;27.70;101205.22;5054677;28;20185;-63
2022/09/07 10:23:22;;;;;;;6.72;6.22;;;33.40;39.70;;;37.43;27.75;101201.81;5054545;28;20218;-65
2022/09/07 10:25:49;;;;;;;7.15;6.45;;;33.30;39.80;;;37.14;28.16;101196.47;5054834;28;20251;-63
2022/09/07 10:28:20;;;;;;;8.38;7.03;;;33.10;39.90;;;36.73;28.52;101193.88;5054211;28;20214;-63
2022/09/07 10:31:12;;;;;;;7.57;6.88;;;32.90;40.20;;;36.33;28.28;101196.31;5054676;28;20186;-64